createdAt,value
2019-05-06T00:00:08.274Z,101197.95
2019-05-06T00:02:37.820Z,101195.50
2019-05-06T00:05:07.625Z,101192.49
2019-05-06T00:07:37.150Z,101195.52
2019-05-06T00:10:08.350Z,101192.77
2019-05-06T00:12:37.910Z,101199.88
2019-05-06T00:15:07.980Z,101189.51
2019-05-06T00:17:37.433Z,101194.43
2019-05-06T00:20:07.460Z,101193.59
2019-05-06T00:22:36.987Z,101192.23
2019-05-06T00:25:14.022Z,101200.42
2019-05-06T00:28:01.399Z,101194.97
2019-05-06T00:30:30.885Z,101189.78
2019-05-06T00:33:00.442Z,101189.23
2019-05-06T00:35:29.907Z,101187.60
2019-05-06T00:37:59.570Z,101189.50
2019-05-06T00:40:30.686Z,101190.30
2019-05-06T00:43:01.900Z,101190.58
2019-05-06T00:45:31.407Z,101197.41
2019-05-06T00:48:00.937Z,101188.40
2019-05-06T00:50:30.502Z,101197.11
2019-05-06T00:53:01.614Z,101211.58
2019-05-06T00:55:33.802Z,101196.58
2019-05-06T00:58:04.024Z,101195.48
2019-05-06T01:00:35.594Z,101191.14
2019-05-06T01:03:05.233Z,101196.30
2019-05-06T01:05:34.902Z,101194.11
2019-05-06T01:08:04.714Z,101188.92
2019-05-06T01:10:34.491Z,101184.30
2019-05-06T01:13:05.730Z,101184.01
2019-05-06T01:15:35.352Z,101185.10
2019-05-06T01:18:05.895Z,101193.02
2019-05-06T01:20:35.345Z,101196.84
2019-05-06T01:23:04.888Z,101194.13
2019-05-06T01:25:34.687Z,101204.21
2019-05-06T01:28:04.367Z,101198.22
2019-05-06T01:30:34.166Z,101201.49
2019-05-06T01:33:04.040Z,101201.75
2019-05-06T01:35:35.232Z,101199.59
2019-05-06T01:38:24.236Z,101199.59
2019-05-06T01:41:04.650Z,101202.05
2019-05-06T01:43:43.777Z,101195.48
2019-05-06T01:46:13.990Z,101202.87
2019-05-06T01:48:49.723Z,101203.40
2019-05-06T01:51:24.136Z,101204.77
2019-05-06T01:53:54.544Z,101198.78
2019-05-06T01:56:24.352Z,101202.87
2019-05-06T01:58:53.909Z,101202.33
2019-05-06T02:01:25.073Z,101201.23
2019-05-06T02:03:54.918Z,101196.61
2019-05-06T02:06:25.047Z,101202.87
2019-05-06T02:08:54.852Z,101202.05
2019-05-06T02:11:24.550Z,101202.32
2019-05-06T02:13:54.025Z,101210.24
2019-05-06T02:16:24.073Z,101203.70
2019-05-06T02:18:54.128Z,101205.59
2019-05-06T02:21:26.497Z,101197.39
2019-05-06T02:24:13.494Z,101204.75
2019-05-06T02:26:43.667Z,101205.59
2019-05-06T02:29:20.787Z,101209.13
2019-05-06T02:32:24.551Z,101206.11
2019-05-06T02:34:45.557Z,101201.47
2019-05-06T02:37:25.362Z,101206.37
2019-05-06T02:39:55.022Z,101206.91
2019-05-06T02:42:24.636Z,101207.72
2019-05-06T02:44:54.562Z,101211.55
2019-05-06T02:47:37.712Z,101203.63
2019-05-06T02:50:08.887Z,101210.16
2019-05-06T02:52:38.350Z,101207.17
2019-05-06T02:55:08.493Z,101208.80
2019-05-06T02:57:37.981Z,101203.08
2019-05-06T03:00:13.163Z,101211.80
2019-05-06T03:02:47.536Z,101200.59
2019-05-06T03:05:14.397Z,101203.59
2019-05-06T03:07:43.889Z,101201.70
2019-05-06T03:10:17.133Z,101201.70
2019-05-06T03:12:46.598Z,101202.51
2019-05-06T03:15:16.971Z,101198.42
2019-05-06T03:17:46.723Z,101204.12
2019-05-06T03:21:00.524Z,101193.73
2019-05-06T03:23:35.234Z,101195.38
2019-05-06T03:26:06.578Z,101191.55
2019-05-06T03:28:36.539Z,101189.92
2019-05-06T03:31:07.869Z,101189.92
2019-05-06T03:33:56.393Z,101187.19
2019-05-06T03:36:18.784Z,101186.63
2019-05-06T03:38:42.839Z,101186.66
2019-05-06T03:41:13.665Z,101185.02
2019-05-06T03:43:43.315Z,101179.03
2019-05-06T03:46:33.539Z,101181.48
2019-05-06T03:49:04.091Z,101186.40
2019-05-06T03:51:34.474Z,101183.70
2019-05-06T03:54:05.405Z,101183.96
2019-05-06T03:56:37.732Z,101191.05
2019-05-06T03:59:08.935Z,101186.16
2019-05-06T04:01:38.687Z,101190.78
2019-05-06T04:04:08.250Z,101191.31
2019-05-06T04:06:37.848Z,101199.50
2019-05-06T04:09:07.429Z,101204.16
2019-05-06T04:11:39.079Z,101202.24
2019-05-06T04:14:09.513Z,101202.78
2019-05-06T04:16:46.532Z,101205.78
2019-05-06T04:19:35.636Z,101206.31
2019-05-06T04:22:15.649Z,101207.95
2019-05-06T04:25:03.897Z,101201.66
2019-05-06T04:27:48.345Z,101203.03
2019-05-06T04:30:19.041Z,101206.30
2019-05-06T04:32:48.637Z,101204.11
2019-05-06T04:35:18.365Z,101211.20
2019-05-06T04:37:47.892Z,101206.55
2019-05-06T04:40:18.493Z,101215.54
2019-05-06T04:42:52.697Z,101208.42
2019-05-06T04:45:23.657Z,101213.32
2019-05-06T04:47:54.070Z,101215.48
2019-05-06T04:50:24.315Z,101212.20
2019-05-06T04:53:05.293Z,101212.17
2019-05-06T04:55:36.278Z,101217.61
2019-05-06T04:58:06.791Z,101216.48
2019-05-06T05:00:37.858Z,101211.56
2019-05-06T05:03:07.498Z,101208.00
2019-05-06T05:05:37.102Z,101215.06
2019-05-06T05:08:06.631Z,101207.70
2019-05-06T05:10:43.735Z,101206.30
2019-05-06T05:13:19.288Z,101207.07
2019-05-06T05:15:52.518Z,101216.33
2019-05-06T05:18:23.739Z,101216.56
2019-05-06T05:20:53.776Z,101218.42
2019-05-06T05:23:23.216Z,101215.92
2019-05-06T05:25:52.859Z,101218.05
2019-05-06T05:28:22.451Z,101223.47
2019-05-06T05:30:52.307Z,101224.22
2019-05-06T05:33:22.490Z,101226.86
2019-05-06T05:35:52.685Z,101232.55
2019-05-06T05:38:22.871Z,101231.92
2019-05-06T05:40:52.618Z,101240.57
2019-05-06T05:43:26.610Z,101233.40
2019-05-06T05:45:56.226Z,101230.30
2019-05-06T05:48:37.293Z,101221.97
2019-05-06T05:51:07.416Z,101232.53
2019-05-06T05:53:36.946Z,101242.53
2019-05-06T05:56:06.510Z,101236.68
2019-05-06T05:58:36.050Z,101230.02
2019-05-06T06:01:05.780Z,101234.05
2019-05-06T06:03:35.308Z,101224.60
2019-05-06T06:06:04.882Z,101225.09
2019-05-06T06:08:36.917Z,101233.19
2019-05-06T06:11:12.221Z,101226.78
2019-05-06T06:13:43.363Z,101230.23
2019-05-06T06:16:14.597Z,101226.86
2019-05-06T06:18:52.445Z,101227.30
2019-05-06T06:21:32.499Z,101229.63
2019-05-06T06:24:13.173Z,101226.25
2019-05-06T06:26:43.098Z,101225.57
2019-05-06T06:29:12.725Z,101225.47
2019-05-06T06:31:46.589Z,101226.16
2019-05-06T06:34:22.306Z,101224.67
2019-05-06T06:36:53.669Z,101205.03
2019-05-06T06:39:32.698Z,101213.94
2019-05-06T06:42:02.803Z,101224.77
2019-05-06T06:44:34.055Z,101229.88
2019-05-06T06:47:04.071Z,101229.19
2019-05-06T06:49:33.533Z,101229.83
2019-05-06T06:52:03.146Z,101229.89
2019-05-06T06:54:33.123Z,101229.41
2019-05-06T06:57:21.773Z,101226.09
2019-05-06T06:59:53.274Z,101222.52
2019-05-06T07:02:32.667Z,101223.33
2019-05-06T07:05:24.444Z,101223.06
2019-05-06T07:07:47.473Z,101217.05
2019-05-06T07:10:32.885Z,101213.48
2019-05-06T07:13:03.053Z,101217.36
2019-05-06T07:15:33.591Z,101220.70
2019-05-06T07:18:03.341Z,101214.45
2019-05-06T07:20:52.569Z,101217.59
2019-05-06T07:23:26.521Z,101221.55
2019-05-06T07:25:56.480Z,101221.91
2019-05-06T07:28:26.097Z,101221.41
2019-05-06T07:30:56.260Z,101221.73
2019-05-06T07:33:25.765Z,101215.77
2019-05-06T07:35:55.421Z,101218.03
2019-05-06T07:38:24.958Z,101219.02
2019-05-06T07:40:56.101Z,101221.31
2019-05-06T07:43:33.778Z,101230.08
2019-05-06T07:46:08.829Z,101223.44
2019-05-06T07:48:38.318Z,101222.55
2019-05-06T07:51:07.796Z,101226.63
2019-05-06T07:53:37.277Z,101227.13
2019-05-06T07:56:06.996Z,101220.73
2019-05-06T07:58:36.593Z,101226.75
2019-05-06T08:01:06.186Z,101223.60
2019-05-06T08:03:35.671Z,101226.22
2019-05-06T08:06:05.306Z,101223.91
2019-05-06T08:08:34.855Z,101225.44
2019-05-06T08:11:04.620Z,101227.26
2019-05-06T08:13:34.111Z,101217.28
2019-05-06T08:16:03.776Z,101228.80
2019-05-06T08:18:33.245Z,101224.66
2019-05-06T08:21:04.454Z,101226.67
2019-05-06T08:23:38.560Z,101221.31
2019-05-06T08:26:13.043Z,101224.64
2019-05-06T08:28:41.529Z,101219.69
2019-05-06T08:31:12.656Z,101220.42
2019-05-06T08:33:43.219Z,101214.52
2019-05-06T08:36:15.110Z,101220.41
2019-05-06T08:38:57.177Z,101213.13
2019-05-06T08:41:27.892Z,101213.23
2019-05-06T08:43:57.919Z,101208.36
2019-05-06T08:46:27.577Z,101203.74
2019-05-06T08:48:57.063Z,101199.06
2019-05-06T08:51:29.411Z,101202.30
2019-05-06T08:54:03.080Z,101207.20
2019-05-06T08:56:32.207Z,101201.95
2019-05-06T08:59:03.138Z,101208.03
2019-05-06T09:01:43.338Z,101208.67
2019-05-06T09:04:16.188Z,101207.89
2019-05-06T09:06:44.166Z,101212.59
2019-05-06T09:09:13.628Z,101210.95
2019-05-06T09:11:43.593Z,101205.26
2019-05-06T09:14:13.907Z,101202.84
2019-05-06T09:16:44.247Z,101198.60
2019-05-06T09:19:13.954Z,101199.70
2019-05-06T09:21:46.305Z,101198.41
2019-05-06T09:24:14.781Z,101192.44
2019-05-06T09:26:45.992Z,101195.40
2019-05-06T09:29:17.365Z,101185.22
2019-05-06T09:31:54.375Z,101179.98
2019-05-06T09:34:37.191Z,101193.62
2019-05-06T09:37:19.576Z,101186.04
2019-05-06T09:39:49.360Z,101187.66
2019-05-06T09:42:19.010Z,101187.42
2019-05-06T09:44:50.637Z,101175.61
2019-05-06T09:47:37.965Z,101185.81
2019-05-06T09:50:12.755Z,101179.58
2019-05-06T09:52:42.825Z,101172.16
2019-05-06T09:55:17.553Z,101175.87
2019-05-06T09:58:03.175Z,101172.08
2019-05-06T10:00:33.609Z,101177.45
2019-05-06T10:03:03.847Z,101178.33
2019-05-06T10:05:33.465Z,101182.86
2019-05-06T10:08:03.394Z,101183.56
2019-05-06T10:10:33.152Z,101185.64
2019-05-06T10:13:02.984Z,101189.37
2019-05-06T10:15:32.778Z,101181.20
2019-05-06T10:18:08.153Z,101193.42
2019-05-06T10:20:45.741Z,101196.13
2019-05-06T10:23:15.946Z,101190.43
2019-05-06T10:25:45.810Z,101187.74
2019-05-06T10:28:23.121Z,101190.02
2019-05-06T10:30:51.956Z,101184.15
2019-05-06T10:33:23.166Z,101187.66
2019-05-06T10:35:53.071Z,101181.72
2019-05-06T10:38:53.004Z,101180.08
2019-05-06T10:41:26.946Z,101175.91
2019-05-06T10:44:04.176Z,101173.26
2019-05-06T10:46:33.632Z,101171.81
2019-05-06T10:49:03.204Z,101170.08
2019-05-06T10:51:37.093Z,101163.69
2019-05-06T10:54:06.731Z,101161.33
2019-05-06T10:56:49.945Z,101153.46
2019-05-06T10:59:08.902Z,101153.41
2019-05-06T11:01:42.540Z,101153.02
2019-05-06T11:04:11.249Z,101148.80
2019-05-06T11:06:42.864Z,101144.45
2019-05-06T11:09:13.500Z,101150.10
2019-05-06T11:11:43.042Z,101143.30
2019-05-06T11:14:12.961Z,101144.30
2019-05-06T11:16:42.648Z,101140.70
2019-05-06T11:19:13.283Z,101140.41
2019-05-06T11:21:45.057Z,101135.19
2019-05-06T11:24:14.411Z,101131.68
2019-05-06T11:26:44.027Z,101134.73
2019-05-06T11:29:21.241Z,101136.39
2019-05-06T11:31:56.718Z,101133.82
2019-05-06T11:34:33.732Z,101128.02
2019-05-06T11:37:23.240Z,101131.56
2019-05-06T11:39:52.830Z,101132.55
2019-05-06T11:42:28.942Z,101138.70
2019-05-06T11:44:54.105Z,101137.34
2019-05-06T11:47:23.671Z,101134.87
2019-05-06T11:49:56.387Z,101132.86
2019-05-06T11:52:26.367Z,101132.69
2019-05-06T11:54:55.884Z,101133.59
2019-05-06T11:57:25.478Z,101137.73
2019-05-06T11:59:54.960Z,101131.98
2019-05-06T12:02:26.072Z,101129.22
2019-05-06T12:04:55.579Z,101127.99
2019-05-06T12:07:25.282Z,101130.49
2019-05-06T12:09:54.871Z,101125.25
2019-05-06T12:12:24.345Z,101124.95
2019-05-06T12:14:53.888Z,101126.30
2019-05-06T12:17:23.503Z,101122.44
2019-05-06T12:19:53.103Z,101118.02
2019-05-06T12:22:24.342Z,101115.65
2019-05-06T12:24:53.876Z,101133.97
2019-05-06T12:27:43.104Z,101134.60
2019-05-06T12:30:13.825Z,101124.63
2019-05-06T12:32:45.060Z,101122.83
2019-05-06T12:35:14.731Z,101121.00
2019-05-06T12:37:45.939Z,101121.95
2019-05-06T12:40:15.749Z,101128.42
2019-05-06T12:42:46.910Z,101133.88
2019-05-06T12:45:23.167Z,101135.37
2019-05-06T12:47:54.059Z,101129.45
2019-05-06T12:50:23.598Z,101136.64
2019-05-06T12:52:53.211Z,101132.27
2019-05-06T12:55:25.296Z,101135.51
2019-05-06T12:57:55.323Z,101129.73
2019-05-06T13:00:25.309Z,101134.69
2019-05-06T13:02:54.951Z,101139.43
2019-05-06T13:05:24.736Z,101131.09
2019-05-06T13:07:54.267Z,101136.61
2019-05-06T13:10:24.140Z,101128.22
2019-05-06T13:12:55.253Z,101126.80
2019-05-06T13:15:24.892Z,101124.72
2019-05-06T13:17:54.457Z,101123.09
2019-05-06T13:20:24.080Z,101121.95
2019-05-06T13:22:55.210Z,101115.50
2019-05-06T13:25:24.690Z,101118.41
2019-05-06T13:27:54.334Z,101110.95
2019-05-06T13:30:24.207Z,101109.39
2019-05-06T13:32:58.250Z,101103.28
2019-05-06T13:35:27.926Z,101113.46
2019-05-06T13:37:57.449Z,101106.55
2019-05-06T13:40:27.364Z,101106.46
2019-05-06T13:43:08.698Z,101102.08
2019-05-06T13:45:41.954Z,101103.09
2019-05-06T13:48:13.332Z,101106.60
2019-05-06T13:50:47.107Z,101100.84
2019-05-06T13:53:16.754Z,101103.16
2019-05-06T13:55:46.264Z,101104.65
2019-05-06T13:58:15.895Z,101091.27
2019-05-06T14:00:45.723Z,101093.81
2019-05-06T14:03:17.560Z,101095.20
2019-05-06T14:05:46.585Z,101092.57
2019-05-06T14:08:16.109Z,101079.31
2019-05-06T14:10:56.759Z,101070.77
2019-05-06T14:13:16.827Z,101076.07
2019-05-06T14:15:46.322Z,101073.31
2019-05-06T14:18:15.808Z,101066.39
2019-05-06T14:20:45.308Z,101060.36
2019-05-06T14:23:14.896Z,101054.42
2019-05-06T14:26:04.165Z,101051.98
2019-05-06T14:28:32.868Z,101055.54
2019-05-06T14:31:06.601Z,101051.70
2019-05-06T14:33:36.149Z,101054.11
2019-05-06T14:36:05.723Z,101056.31
2019-05-06T14:38:35.213Z,101058.86
2019-05-06T14:41:18.438Z,101058.41
2019-05-06T14:43:47.921Z,101057.70
2019-05-06T14:46:17.559Z,101050.53
2019-05-06T14:48:47.108Z,101047.75
2019-05-06T14:51:16.613Z,101046.36
2019-05-06T14:53:46.189Z,101048.47
2019-05-06T14:56:17.402Z,101042.88
2019-05-06T14:58:48.626Z,101036.14
2019-05-06T15:01:18.104Z,101040.24
2019-05-06T15:03:47.594Z,101034.88
2019-05-06T15:06:17.057Z,101032.44
2019-05-06T15:08:46.644Z,101028.80
2019-05-06T15:11:16.157Z,101029.03
2019-05-06T15:13:45.766Z,101021.86
2019-05-06T15:16:15.347Z,101028.35
2019-05-06T15:18:44.824Z,101020.28
2019-05-06T15:21:33.818Z,101010.59
2019-05-06T15:23:45.714Z,101014.80
2019-05-06T15:26:15.233Z,101020.16
2019-05-06T15:28:44.849Z,101017.19
2019-05-06T15:31:32.092Z,101011.20
2019-05-06T15:34:03.235Z,101009.96
2019-05-06T15:36:43.471Z,101022.73
2019-05-06T15:39:13.261Z,101026.34
2019-05-06T15:41:42.818Z,101031.92
2019-05-06T15:44:12.603Z,101020.86
2019-05-06T15:46:43.019Z,101026.97
2019-05-06T15:49:12.670Z,101027.55
2019-05-06T15:51:42.724Z,101029.28
2019-05-06T15:54:12.340Z,101022.95
2019-05-06T15:56:42.341Z,101029.38
2019-05-06T15:59:12.178Z,101029.84
2019-05-06T16:01:43.095Z,101023.13
2019-05-06T16:04:12.769Z,101033.74
2019-05-06T16:06:44.717Z,101039.95
2019-05-06T16:09:14.366Z,101064.40
2019-05-06T16:11:44.746Z,101073.08
2019-05-06T16:14:14.265Z,101073.39
2019-05-06T16:16:43.740Z,101076.72
2019-05-06T16:19:13.329Z,101085.25
2019-05-06T16:21:45.104Z,101083.88
2019-05-06T16:24:21.669Z,101084.31
2019-05-06T16:26:52.676Z,101086.91
2019-05-06T16:29:23.994Z,101073.73
2019-05-06T16:31:53.484Z,101068.97
2019-05-06T16:34:23.025Z,101069.20
2019-05-06T16:36:52.546Z,101068.19
2019-05-06T16:39:23.004Z,101066.00
2019-05-06T16:41:52.608Z,101077.87
2019-05-06T16:44:22.152Z,101077.56
2019-05-06T16:46:52.188Z,101075.88
2019-05-06T16:49:23.184Z,101075.81
2019-05-06T16:51:52.930Z,101075.16
2019-05-06T16:54:22.756Z,101078.08
2019-05-06T16:56:53.884Z,101081.84
2019-05-06T16:59:23.861Z,101075.02
2019-05-06T17:01:53.457Z,101077.05
2019-05-06T17:04:27.385Z,101086.03
2019-05-06T17:06:57.040Z,101092.79
2019-05-06T17:09:27.711Z,101089.55
2019-05-06T17:11:57.551Z,101089.61
2019-05-06T17:14:27.094Z,101086.12
2019-05-06T17:16:56.585Z,101088.39
2019-05-06T17:19:26.146Z,101089.28
2019-05-06T17:21:55.608Z,101083.53
2019-05-06T17:24:25.192Z,101084.42
2019-05-06T17:26:56.350Z,101080.14
2019-05-06T17:29:43.654Z,101081.52
2019-05-06T17:32:14.903Z,101088.72
2019-05-06T17:34:46.014Z,101089.12
2019-05-06T17:37:36.560Z,101088.39
2019-05-06T17:40:10.888Z,101084.38
2019-05-06T17:42:38.499Z,101080.66
2019-05-06T17:45:31.972Z,101080.16
2019-05-06T17:48:08.150Z,101076.19
2019-05-06T17:50:37.659Z,101075.20
2019-05-06T17:53:07.214Z,101081.03
2019-05-06T17:55:36.800Z,101081.09
2019-05-06T17:58:06.354Z,101081.73
2019-05-06T18:00:35.883Z,101083.75
2019-05-06T18:03:05.483Z,101081.64
2019-05-06T18:05:35.002Z,101079.77
2019-05-06T18:08:04.532Z,101076.28
2019-05-06T18:10:34.195Z,101076.13
2019-05-06T18:13:03.688Z,101078.70
2019-05-06T18:15:33.222Z,101081.45
2019-05-06T18:18:02.667Z,101070.53
2019-05-06T18:20:33.521Z,101079.34
2019-05-06T18:23:03.285Z,101079.92
2019-05-06T18:25:33.025Z,101075.20
2019-05-06T18:28:03.808Z,101069.45
2019-05-06T18:30:37.046Z,101068.66
2019-05-06T18:33:04.719Z,101070.09
2019-05-06T18:35:34.204Z,101069.36
2019-05-06T18:38:03.748Z,101066.36
2019-05-06T18:40:33.301Z,101059.53
2019-05-06T18:43:02.864Z,101058.49
2019-05-06T18:45:33.449Z,101062.92
2019-05-06T18:48:03.019Z,101064.64
2019-05-06T18:50:32.782Z,101063.27
2019-05-06T18:53:02.527Z,101063.02
2019-05-06T18:55:32.714Z,101061.39
2019-05-06T18:58:02.959Z,101067.78
2019-05-06T19:00:32.508Z,101056.28
2019-05-06T19:03:02.688Z,101056.03
2019-05-06T19:05:39.891Z,101064.59
2019-05-06T19:08:21.873Z,101070.44
2019-05-06T19:10:53.075Z,101066.31
2019-05-06T19:13:22.510Z,101073.50
2019-05-06T19:15:52.735Z,101076.34
2019-05-06T19:18:22.537Z,101078.84
2019-05-06T19:20:53.064Z,101075.32
2019-05-06T19:23:22.749Z,101076.20
2019-05-06T19:25:52.329Z,101081.47
2019-05-06T19:28:22.082Z,101087.31
2019-05-06T19:30:53.985Z,101094.19
2019-05-06T19:33:22.863Z,101093.70
2019-05-06T19:35:52.438Z,101096.51
2019-05-06T19:38:24.392Z,101094.39
2019-05-06T19:40:54.255Z,101095.52
2019-05-06T19:43:23.840Z,101093.73
2019-05-06T19:45:53.434Z,101093.53
2019-05-06T19:48:24.690Z,101091.41
2019-05-06T19:50:54.242Z,101094.55
2019-05-06T19:53:23.856Z,101089.68
2019-05-06T19:55:53.358Z,101089.48
2019-05-06T19:58:22.860Z,101089.33
2019-05-06T20:00:52.909Z,101089.95
2019-05-06T20:03:23.194Z,101094.70
2019-05-06T20:05:54.344Z,101098.59
2019-05-06T20:08:25.563Z,101096.72
2019-05-06T20:11:02.189Z,101101.97
2019-05-06T20:13:32.354Z,101095.97
2019-05-06T20:16:02.793Z,101090.77
2019-05-06T20:18:32.855Z,101094.34
2019-05-06T20:21:03.437Z,101099.34
2019-05-06T20:23:32.956Z,101101.60
2019-05-06T20:26:02.890Z,101100.83
2019-05-06T20:28:32.492Z,101097.58
2019-05-06T20:31:02.629Z,101095.70
2019-05-06T20:33:32.756Z,101102.33
2019-05-06T20:36:02.232Z,101096.91
2019-05-06T20:38:33.587Z,101095.03
2019-05-06T20:41:03.150Z,101096.45
2019-05-06T20:43:34.288Z,101099.84
2019-05-06T20:46:03.895Z,101102.91
2019-05-06T20:48:33.485Z,101094.68
2019-05-06T20:51:04.560Z,101093.63
2019-05-06T20:53:34.093Z,101099.43
2019-05-06T20:56:03.693Z,101099.77
2019-05-06T20:58:33.183Z,101098.68
2019-05-06T21:01:03.082Z,101098.73
2019-05-06T21:03:32.814Z,101100.18
2019-05-06T21:06:02.384Z,101096.93
2019-05-06T21:08:32.813Z,101101.93
2019-05-06T21:11:04.082Z,101097.30
2019-05-06T21:13:35.525Z,101100.67
2019-05-06T21:16:05.269Z,101101.30
2019-05-06T21:18:34.786Z,101100.30
2019-05-06T21:21:04.423Z,101095.17
2019-05-06T21:23:33.894Z,101094.09
2019-05-06T21:26:03.460Z,101093.34
2019-05-06T21:28:32.994Z,101091.75
2019-05-06T21:31:03.183Z,101088.75
2019-05-06T21:33:32.984Z,101086.62
2019-05-06T21:36:03.059Z,101090.58
2019-05-06T21:38:32.720Z,101087.87
2019-05-06T21:41:02.241Z,101087.36
2019-05-06T21:43:44.736Z,101094.61
2019-05-06T21:46:02.936Z,101092.73
2019-05-06T21:48:33.685Z,101087.84
2019-05-06T21:51:03.348Z,101092.84
2019-05-06T21:53:32.820Z,101089.34
2019-05-06T21:56:02.336Z,101082.25
2019-05-06T21:58:31.797Z,101086.20
2019-05-06T22:01:03.380Z,101086.23
2019-05-06T22:03:32.975Z,101084.44
2019-05-06T22:06:02.584Z,101084.47
2019-05-06T22:08:32.969Z,101086.46
2019-05-06T22:11:03.086Z,101093.14
2019-05-06T22:13:33.451Z,101086.89
2019-05-06T22:16:04.741Z,101089.67
2019-05-06T22:18:34.510Z,101085.09
2019-05-06T22:21:22.471Z,101081.33
2019-05-06T22:23:54.238Z,101077.03
2019-05-06T22:26:24.872Z,101074.32
2019-05-06T22:28:55.033Z,101074.39
2019-05-06T22:31:25.803Z,101069.77
2019-05-06T22:33:55.807Z,101068.43
2019-05-06T22:36:25.352Z,101067.13
2019-05-06T22:38:54.898Z,101068.78
2019-05-06T22:41:25.463Z,101071.56
2019-05-06T22:43:55.200Z,101073.27
2019-05-06T22:46:24.719Z,101071.38
2019-05-06T22:48:54.720Z,101076.05
2019-05-06T22:51:24.738Z,101079.91
2019-05-06T22:53:54.180Z,101074.48
2019-05-06T22:56:23.734Z,101071.77
2019-05-06T22:58:53.264Z,101066.61
2019-05-06T23:01:32.347Z,101072.96
2019-05-06T23:04:02.127Z,101075.45
2019-05-06T23:06:32.914Z,101073.25
2019-05-06T23:09:02.764Z,101073.82
2019-05-06T23:11:32.881Z,101072.20
2019-05-06T23:14:02.877Z,101066.70
2019-05-06T23:16:34.855Z,101080.43
2019-05-06T23:19:03.735Z,101081.80
2019-05-06T23:21:33.742Z,101078.80
2019-05-06T23:24:03.370Z,101073.06
2019-05-06T23:26:32.911Z,101079.41
2019-05-06T23:29:02.611Z,101070.67
2019-05-06T23:31:33.205Z,101075.65
2019-05-06T23:34:04.949Z,101071.02
2019-05-06T23:37:02.768Z,101077.08
2019-05-06T23:40:28.798Z,101067.84
2019-05-06T23:43:52.978Z,101072.55
2019-05-06T23:47:17.993Z,101071.86
2019-05-06T23:50:42.880Z,101065.38
2019-05-06T23:54:07.165Z,101061.36
2019-05-06T23:56:47.090Z,101066.94
2019-05-06T23:59:18.597Z,101060.14
